Time;durP1;ratioP1;P1;durP2;ratioP2;P2;SDS_P1;SDS_P2;PMS_P1;PMS_P2;Temp;Humidity;BMP_temperature;BMP_pressure;BME280_temperature;BME280_humidity;BME280_pressure;Samples;Min_cycle;Max_cycle;Signal;HPM_P1;HPM_P2
2021/06/22 00:02:28;;;;;;;26.45;8.27;;;22.00;99.90;;;;;;5070765;28;20043;-67
2021/06/22 00:05:35;;;;;;;24.58;8.27;;;22.00;99.90;;;;;;5071180;28;20498;-66
2021/06/22 00:08:39;;;;;;;37.65;8.30;;;21.90;99.90;;;;;;5071317;28;20051;-66
2021/06/22 00:11:43;;;;;;;32.38;9.02;;;21.90;99.90;;;;;;5070722;28;20051;-66
2021/06/22 00:14:47;;;;;;;39.47;8.55;;;21.90;99.90;;;;;;5086201;28;20055;-66
2021/06/22 00:17:54;;;;;;;26.17;8.02;;;21.90;99.90;;;;;;5086637;28;20059;-66
2021/06/22 00:20:58;;;;;;;24.88;6.70;;;21.90;99.90;;;;;;5070518;28;20051;-66
2021/06/22 00:24:02;;;;;;;31.25;8.73;;;21.90;99.90;;;;;;5070120;28;20047;-66
2021/06/22 00:27:08;;;;;;;26.30;7.40;;;21.90;99.90;;;;;;5076245;28;20067;-66
2021/06/22 00:30:14;;;;;;;23.60;7.63;;;21.90;99.90;;;;;;5069827;28;20388;-66
2021/06/22 00:33:18;;;;;;;34.88;8.73;;;21.90;99.90;;;;;;5086114;28;20501;-66
2021/06/22 00:36:24;;;;;;;29.08;8.55;;;21.90;99.90;;;;;;5085769;28;20063;-67
2021/06/22 00:39:29;;;;;;;40.90;8.45;;;21.90;99.90;;;;;;5070345;28;20048;-66
2021/06/22 00:42:33;;;;;;;28.45;7.72;;;21.90;99.90;;;;;;5087646;28;20043;-66
2021/06/22 00:45:38;;;;;;;36.53;7.90;;;21.80;99.90;;;;;;5081712;28;20047;-66
2021/06/22 00:48:46;;;;;;;29.52;8.57;;;21.80;99.90;;;;;;5070199;28;20047;-66
2021/06/22 00:51:50;;;;;;;27.30;9.15;;;21.70;99.90;;;;;;5089926;28;20394;-66
2021/06/22 00:54:56;;;;;;;34.08;8.43;;;21.70;99.90;;;;;;5087870;28;20047;-66
2021/06/22 00:58:06;;;;;;;37.45;8.85;;;21.70;99.90;;;;;;5085759;28;20236;-67
2021/06/22 01:01:11;;;;;;;28.45;7.90;;;21.70;99.90;;;;;;5068117;28;20047;-66
2021/06/22 01:04:15;;;;;;;28.65;7.15;;;21.60;99.90;;;;;;5081148;28;20040;-66
2021/06/22 01:07:29;;;;;;;30.15;7.28;;;21.70;99.90;;;;;;5087727;28;20519;-67
2021/06/22 01:10:36;;;;;;;32.38;7.05;;;21.70;99.90;;;;;;5089681;28;20038;-66
2021/06/22 01:13:40;;;;;;;22.45;7.25;;;21.80;99.90;;;;;;5069127;28;20052;-66
2021/06/22 01:16:45;;;;;;;31.92;8.00;;;21.80;99.90;;;;;;5073493;28;20047;-66
2021/06/22 01:19:49;;;;;;;29.60;7.63;;;21.80;99.90;;;;;;5089578;28;20122;-66
2021/06/22 01:22:56;;;;;;;34.40;9.20;;;21.90;99.90;;;;;;5079307;28;20043;-66
2021/06/22 01:26:01;;;;;;;32.22;7.25;;;21.90;99.90;;;;;;5084208;28;20505;-67
2021/06/22 01:29:08;;;;;;;28.10;7.07;;;21.90;99.90;;;;;;5078524;28;20047;-66
2021/06/22 01:32:13;;;;;;;29.80;7.85;;;21.90;99.90;;;;;;5068041;28;20510;-66
2021/06/22 01:35:21;;;;;;;31.85;8.10;;;21.90;99.90;;;;;;5089927;28;20043;-67
2021/06/22 01:38:26;;;;;;;25.75;7.85;;;21.80;99.90;;;;;;5085359;28;20063;-67
2021/06/22 01:41:34;;;;;;;33.45;8.23;;;21.80;99.90;;;;;;5067674;28;20047;-66
2021/06/22 01:44:38;;;;;;;29.92;8.43;;;21.80;99.90;;;;;;5073476;28;20047;-66
2021/06/22 01:47:44;;;;;;;28.88;7.97;;;21.80;99.90;;;;;;5073553;28;20035;-66
2021/06/22 01:50:48;;;;;;;28.55;8.65;;;21.80;99.90;;;;;;5089368;28;20047;-67
2021/06/22 01:53:59;;;;;;;23.92;7.72;;;21.80;99.90;;;;;;5092943;28;20051;-67
2021/06/22 01:57:04;;;;;;;30.63;8.00;;;21.80;99.90;;;;;;5087208;28;20043;-66
2021/06/22 02:00:12;;;;;;;38.03;8.82;;;21.80;99.90;;;;;;5091515;28;20058;-66
2021/06/22 02:03:28;;;;;;;25.55;7.53;;;21.80;99.90;;;;;;5089258;28;20051;-66
2021/06/22 02:06:35;;;;;;;24.55;6.95;;;21.90;99.90;;;;;;5079556;28;20051;-66
2021/06/22 02:10:06;;;;;;;30.13;7.57;;;21.90;99.90;;;;;;5078617;28;20071;-66
2021/06/22 02:13:36;;;;;;;31.27;7.50;;;21.90;99.90;;;;;;5072963;28;20052;-66
2021/06/22 02:16:46;;;;;;;38.20;8.02;;;21.80;99.90;;;;;;5091773;28;20047;-67
2021/06/22 02:19:50;;;;;;;31.95;7.90;;;21.80;99.90;;;;;;5082925;28;20051;-67
2021/06/22 02:23:10;;;;;;;27.98;8.55;;;21.70;99.90;;;;;;5092176;28;20067;-67
2021/06/22 02:26:15;;;;;;;31.00;8.10;;;21.60;99.90;;;;;;5072139;28;20218;-67
2021/06/22 02:29:20;;;;;;;34.30;9.65;;;21.50;99.90;;;;;;5071974;28;20145;-66
2021/06/22 02:32:27;;;;;;;27.85;7.85;;;21.50;99.90;;;;;;5071124;28;20056;-66
2021/06/22 02:35:36;;;;;;;31.38;7.93;;;21.40;99.90;;;;;;5094312;28;20059;-67
2021/06/22 02:38:46;;;;;;;32.83;8.27;;;21.40;99.90;;;;;;5075834;28;20036;-66
2021/06/22 02:41:55;;;;;;;30.73;8.32;;;21.40;99.90;;;;;;5076333;28;20043;-66
2021/06/22 02:45:00;;;;;;;27.95;8.63;;;21.30;99.90;;;;;;5092238;28;20054;-66
2021/06/22 02:48:06;;;;;;;34.88;9.23;;;21.30;99.90;;;;;;5084418;28;20043;-66
2021/06/22 02:51:12;;;;;;;35.03;9.35;;;21.30;99.90;;;;;;5075088;28;20091;-67
2021/06/22 02:54:24;;;;;;;39.97;8.52;;;21.20;99.90;;;;;;5073204;28;20408;-66
2021/06/22 02:57:30;;;;;;;28.02;7.97;;;21.20;99.90;;;;;;5071413;28;20509;-67
2021/06/22 03:00:36;;;;;;;33.60;9.00;;;21.10;99.90;;;;;;5091130;28;20058;-66
2021/06/22 03:03:45;;;;;;;35.30;9.40;;;21.10;99.90;;;;;;5089405;28;20065;-67
2021/06/22 03:06:53;;;;;;;35.22;7.55;;;21.10;99.90;;;;;;5091654;28;20402;-66
2021/06/22 03:10:11;;;;;;;38.97;8.80;;;21.20;99.90;;;;;;5076974;28;20035;-66
2021/06/22 03:13:17;;;;;;;34.53;8.75;;;21.10;99.90;;;;;;5075489;28;20039;-66
2021/06/22 03:16:23;;;;;;;32.08;10.35;;;20.90;99.90;;;;;;5091423;28;20051;-66
2021/06/22 03:19:27;;;;;;;38.58;9.90;;;20.60;99.90;;;;;;5072571;28;20516;-67
2021/06/22 03:22:39;;;;;;;31.27;9.73;;;20.40;99.90;;;;;;5077845;28;20051;-66
2021/06/22 03:25:44;;;;;;;34.45;11.32;;;20.40;99.90;;;;;;5090873;28;20058;-66
2021/06/22 03:28:49;;;;;;;28.55;10.25;;;20.30;99.90;;;;;;5092027;28;20040;-66
2021/06/22 03:32:12;;;;;;;29.83;9.95;;;20.20;99.90;;;;;;5072809;28;20411;-66
2021/06/22 03:35:17;;;;;;;33.40;9.95;;;20.20;99.90;;;;;;5071636;28;20391;-66
2021/06/22 03:38:20;;;;;;;26.48;9.63;;;20.10;99.90;;;;;;5072041;28;20048;-66
2021/06/22 03:41:25;;;;;;;28.85;10.25;;;20.00;99.90;;;;;;5074483;28;20044;-66
2021/06/22 03:44:33;;;;;;;37.90;11.52;;;19.90;99.90;;;;;;5074299;28;20043;-66
2021/06/22 03:47:40;;;;;;;30.65;9.68;;;19.90;99.90;;;;;;5091210;28;20584;-66
2021/06/22 03:50:46;;;;;;;29.58;10.25;;;19.90;99.90;;;;;;5091069;28;20055;-66
2021/06/22 03:53:50;;;;;;;31.17;10.05;;;20.00;99.90;;;;;;5086612;28;20056;-66
2021/06/22 03:56:55;;;;;;;27.73;9.57;;;19.90;99.90;;;;;;5082515;28;20482;-66
2021/06/22 04:00:08;;;;;;;33.10;10.52;;;19.90;99.90;;;;;;5081803;28;20048;-66
2021/06/22 04:03:21;;;;;;;30.10;9.35;;;19.90;99.90;;;;;;5071139;28;20048;-66
2021/06/22 04:06:54;;;;;;;34.95;10.68;;;19.90;99.90;;;;;;5031637;28;20047;-66
2021/06/22 04:09:59;;;;;;;32.67;10.32;;;20.00;99.90;;;;;;5094976;28;20055;-66
2021/06/22 04:13:03;;;;;;;31.92;9.82;;;20.00;99.90;;;;;;5072652;28;20035;-66
2021/06/22 04:16:07;;;;;;;36.13;10.30;;;20.10;99.90;;;;;;5073898;28;20047;-66
2021/06/22 04:19:12;;;;;;;30.58;10.82;;;20.10;99.90;;;;;;5071102;28;20387;-66
2021/06/22 04:22:16;;;;;;;35.88;14.75;;;20.20;99.90;;;;;;5088803;28;20058;-66
2021/06/22 04:25:25;;;;;;;41.13;9.85;;;20.30;99.90;;;;;;5076986;28;20083;-66
2021/06/22 04:28:30;;;;;;;27.23;9.88;;;20.30;99.90;;;;;;5070016;28;20047;-66
2021/06/22 04:31:34;;;;;;;29.65;12.60;;;20.60;99.90;;;;;;5069910;28;20055;-66
2021/06/22 04:34:39;;;;;;;35.35;8.60;;;21.50;99.90;;;;;;5070853;28;20522;-66
2021/06/22 04:37:43;;;;;;;22.75;8.45;;;22.50;99.90;;;;;;5073673;28;20043;-66
2021/06/22 04:40:48;;;;;;;37.92;15.57;;;23.60;99.90;;;;;;5090451;28;20063;-66
2021/06/22 04:43:53;;;;;;;36.35;10.95;;;24.80;99.90;;;;;;5082506;28;20035;-66
2021/06/22 04:46:57;;;;;;;30.63;9.93;;;25.80;99.90;;;;;;5089619;28;20043;-66
2021/06/22 04:50:01;;;;;;;28.63;8.63;;;26.40;99.90;;;;;;5089966;28;20047;-66
2021/06/22 04:53:06;;;;;;;31.25;8.43;;;27.10;99.90;;;;;;5087512;28;20050;-66
2021/06/22 04:56:10;;;;;;;24.42;8.52;;;27.60;99.90;;;;;;5070412;28;20051;-66
2021/06/22 04:59:14;;;;;;;32.28;8.52;;;28.20;99.90;;;;;;5070172;28;20051;-66
2021/06/22 05:02:19;;;;;;;24.92;6.32;;;28.60;99.90;;;;;;5088071;28;20051;-66
2021/06/22 05:05:25;;;;;;;34.10;6.68;;;29.10;99.90;;;;;;5085286;28;20734;-66
2021/06/22 05:08:29;;;;;;;20.20;6.43;;;29.80;99.90;;;;;;5089667;28;20046;-66
2021/06/22 05:11:33;;;;;;;23.98;6.47;;;30.40;99.90;;;;;;5088095;28;20031;-67
2021/06/22 05:14:37;;;;;;;28.33;7.65;;;30.70;99.90;;;;;;5074627;28;20051;-67
2021/06/22 05:17:41;;;;;;;27.90;7.15;;;28.10;99.90;;;;;;5069803;28;20044;-67
2021/06/22 05:20:45;;;;;;;22.17;7.45;;;28.70;99.90;;;;;;5069069;28;20040;-68
2021/06/22 05:23:49;;;;;;;22.77;7.15;;;29.60;99.90;;;;;;5080444;28;20042;-68
2021/06/22 05:26:53;;;;;;;22.30;6.05;;;30.30;99.90;;;;;;5087887;28;20059;-68
2021/06/22 05:29:57;;;;;;;17.23;6.50;;;30.70;99.90;;;;;;5087549;28;20043;-67
2021/06/22 05:33:02;;;;;;;18.52;6.00;;;30.90;99.90;;;;;;5076148;28;20040;-67
2021/06/22 05:36:07;;;;;;;19.45;5.40;;;31.20;99.40;;;;;;5083744;28;20039;-66
2021/06/22 05:39:11;;;;;;;18.80;6.90;;;31.50;98.60;;;;;;5087186;28;20047;-66
2021/06/22 05:42:16;;;;;;;24.00;6.35;;;31.60;98.40;;;;;;5084654;28;20051;-67
2021/06/22 05:45:20;;;;;;;18.30;5.00;;;31.80;98.30;;;;;;5084391;28;20494;-67
2021/06/22 05:48:24;;;;;;;20.88;6.47;;;32.20;98.10;;;;;;5088682;28;20367;-66
2021/06/22 05:51:28;;;;;;;23.35;5.78;;;32.50;97.40;;;;;;5083759;28;20048;-67
2021/06/22 05:54:33;;;;;;;21.88;5.35;;;32.50;97.20;;;;;;5082237;28;20047;-67
2021/06/22 05:57:38;;;;;;;27.05;5.40;;;32.60;97.00;;;;;;5086615;28;20051;-67
2021/06/22 06:00:43;;;;;;;22.63;5.22;;;32.90;96.40;;;;;;5085513;28;20059;-67
2021/06/22 06:03:47;;;;;;;27.42;5.30;;;33.20;95.90;;;;;;5087285;28;20043;-66
2021/06/22 06:06:51;;;;;;;26.13;5.88;;;33.50;95.20;;;;;;5083304;28;20047;-67
2021/06/22 06:09:56;;;;;;;32.88;6.45;;;33.60;94.60;;;;;;5088152;28;20055;-66
2021/06/22 06:13:00;;;;;;;22.48;5.53;;;34.00;94.20;;;;;;5080837;28;20043;-67
2021/06/22 06:16:06;;;;;;;22.83;5.20;;;33.40;93.70;;;;;;5084369;28;20572;-65
2021/06/22 06:19:11;;;;;;;17.88;5.43;;;31.20;95.80;;;;;;5081262;28;20388;-66
2021/06/22 06:22:16;;;;;;;28.38;6.22;;;28.60;98.80;;;;;;5081113;28;20044;-65
2021/06/22 06:25:20;;;;;;;25.27;6.78;;;27.70;99.90;;;;;;5075996;28;20062;-67
2021/06/22 06:28:28;;;;;;;24.67;6.95;;;27.00;99.90;;;;;;5089564;28;20427;-66
2021/06/22 06:31:33;;;;;;;28.17;9.07;;;26.90;99.90;;;;;;5085031;28;20051;-67
2021/06/22 06:34:37;;;;;;;26.02;6.75;;;27.80;99.90;;;;;;5081169;28;20047;-67
2021/06/22 06:37:42;;;;;;;21.92;5.20;;;29.50;99.90;;;;;;5077792;28;20081;-67
2021/06/22 06:40:46;;;;;;;19.48;5.97;;;30.60;98.90;;;;;;5086091;28;20051;-68
2021/06/22 06:43:50;;;;;;;23.70;6.90;;;31.80;97.50;;;;;;5073293;28;20043;-67
2021/06/22 06:46:54;;;;;;;22.70;7.43;;;32.10;96.40;;;;;;5073042;28;20051;-67
2021/06/22 06:49:59;;;;;;;30.17;10.57;;;30.90;97.10;;;;;;5087459;28;20398;-67
2021/06/22 06:53:03;;;;;;;18.98;7.90;;;32.10;96.50;;;;;;5090024;28;20035;-68
2021/06/22 06:56:08;;;;;;;20.73;5.30;;;32.80;95.60;;;;;;5089494;28;20399;-68
2021/06/22 06:59:12;;;;;;;46.63;7.25;;;33.60;95.20;;;;;;5090704;28;20572;-67
2021/06/22 07:02:16;;;;;;;22.98;5.60;;;34.00;94.70;;;;;;5071680;28;20039;-68
2021/06/22 07:05:20;;;;;;;23.80;5.15;;;31.40;95.60;;;;;;5072469;28;20044;-69
2021/06/22 07:08:24;;;;;;;21.83;6.32;;;31.10;96.40;;;;;;5071476;28;20395;-68
2021/06/22 07:11:28;;;;;;;24.33;5.60;;;31.90;96.00;;;;;;5079156;28;20043;-68
2021/06/22 07:14:32;;;;;;;19.17;4.72;;;32.70;95.60;;;;;;5090099;28;20043;-68
2021/06/22 07:17:36;;;;;;;20.67;4.60;;;33.30;94.60;;;;;;5071133;28;20059;-68
2021/06/22 07:20:40;;;;;;;21.80;5.07;;;34.00;94.30;;;;;;5088328;28;20059;-68
2021/06/22 07:23:45;;;;;;;24.75;4.95;;;33.40;94.40;;;;;;5079895;28;20039;-67
2021/06/22 07:26:49;;;;;;;20.75;4.72;;;31.10;95.90;;;;;;5091241;28;20043;-66
2021/06/22 07:29:53;;;;;;;21.42;6.38;;;32.40;95.90;;;;;;5090453;28;20047;-68
2021/06/22 07:32:58;;;;;;;35.60;5.53;;;32.20;94.90;;;;;;5084311;28;20570;-68
2021/06/22 07:36:02;;;;;;;23.85;7.00;;;33.60;94.90;;;;;;5085875;28;20051;-67
2021/06/22 07:39:06;;;;;;;32.00;6.30;;;34.70;93.70;;;;;;5084258;28;20044;-67
2021/06/22 07:42:10;;;;;;;22.38;4.85;;;33.40;93.20;;;;;;5070940;28;20040;-67
2021/06/22 07:45:16;;;;;;;24.05;6.63;;;35.40;92.20;;;;;;5080977;28;20039;-67
2021/06/22 07:48:21;;;;;;;37.70;6.53;;;36.50;91.60;;;;;;5071451;28;20059;-67
2021/06/22 07:51:24;;;;;;;19.65;5.80;;;37.00;91.20;;;;;;5077764;28;20039;-67
2021/06/22 07:54:28;;;;;;;20.52;5.82;;;37.70;90.40;;;;;;5090878;28;20059;-67
2021/06/22 07:57:33;;;;;;;29.10;5.72;;;38.00;89.40;;;;;;5091786;28;20051;-67
2021/06/22 08:00:45;;;;;;;21.13;5.65;;;39.10;88.20;;;;;;5077450;28;20059;-68
2021/06/22 08:03:49;;;;;;;24.38;5.18;;;40.00;86.30;;;;;;5088221;28;20051;-68
2021/06/22 08:06:54;;;;;;;23.73;5.55;;;39.60;85.80;;;;;;5092259;28;20050;-67
2021/06/22 08:09:59;;;;;;;22.60;5.65;;;38.30;86.20;;;;;;5086637;28;20047;-68
2021/06/22 08:13:04;;;;;;;24.25;5.53;;;38.80;86.70;;;;;;5091588;28;20062;-68
2021/06/22 08:16:09;;;;;;;21.65;5.43;;;33.90;90.60;;;;;;5089123;28;20621;-68
2021/06/22 08:19:13;;;;;;;19.70;4.90;;;35.10;90.50;;;;;;5090328;28;20051;-67
2021/06/22 08:22:18;;;;;;;25.02;5.13;;;37.70;87.60;;;;;;5090116;28;20051;-67
2021/06/22 08:25:24;;;;;;;29.80;5.28;;;36.00;86.20;;;;;;5091444;28;20329;-67
2021/06/22 08:28:29;;;;;;;19.45;5.28;;;35.70;87.70;;;;;;5074402;28;20039;-67
2021/06/22 08:31:35;;;;;;;20.30;7.25;;;37.80;85.60;;;;;;5076679;28;20391;-66
2021/06/22 08:34:40;;;;;;;18.45;4.40;;;39.50;82.40;;;;;;5090990;28;20047;-68
2021/06/22 08:37:44;;;;;;;21.88;4.45;;;40.10;82.10;;;;;;5088334;28;20043;-67
2021/06/22 08:40:49;;;;;;;19.30;4.47;;;39.90;80.30;;;;;;5071501;28;20051;-69
2021/06/22 08:43:55;;;;;;;24.13;4.40;;;37.90;81.60;;;;;;5085697;28;20039;-67
2021/06/22 08:47:01;;;;;;;20.10;5.22;;;36.50;83.70;;;;;;5087376;28;20043;-67
2021/06/22 08:50:07;;;;;;;21.33;4.10;;;38.30;82.90;;;;;;5082945;28;20398;-67
2021/06/22 08:53:14;;;;;;;14.32;3.72;;;40.40;80.90;;;;;;5086335;28;20102;-67
2021/06/22 08:56:18;;;;;;;27.13;4.75;;;41.90;77.00;;;;;;5084473;28;20058;-67
2021/06/22 08:59:22;;;;;;;28.40;5.00;;;36.80;79.50;;;;;;5085081;28;20403;-68
2021/06/22 09:02:28;;;;;;;16.15;3.55;;;39.40;79.90;;;;;;5085106;28;20522;-68
2021/06/22 09:05:32;;;;;;;19.80;4.55;;;37.70;80.00;;;;;;5088188;28;20043;-66
2021/06/22 09:08:37;;;;;;;32.28;5.22;;;36.40;81.80;;;;;;5088153;28;20297;-67
2021/06/22 09:12:02;;;;;;;22.85;5.07;;;34.40;86.00;;;;;;5084412;28;20050;-67
2021/06/22 09:15:20;;;;;;;17.73;3.90;;;35.60;85.40;;;;;;5087525;28;20272;-66
2021/06/22 09:18:30;;;;;;;23.75;4.70;;;39.20;80.70;;;;;;5069811;28;20503;-67
2021/06/22 09:21:43;;;;;;;17.13;4.50;;;38.30;80.00;;;;;;5085541;28;20059;-65
2021/06/22 09:25:02;;;;;;;22.52;4.57;;;37.50;79.70;;;;;;5086758;28;20498;-66
2021/06/22 09:28:08;;;;;;;25.30;4.82;;;35.20;79.80;;;;;;5069512;28;20040;-67
2021/06/22 09:31:31;;;;;;;19.88;4.30;;;35.50;81.40;;;;;;5084145;28;20043;-66
2021/06/22 09:34:36;;;;;;;24.80;3.80;;;38.40;79.40;;;;;;5083551;28;20035;-66
2021/06/22 09:37:53;;;;;;;30.05;4.65;;;41.40;77.50;;;;;;5085902;28;20047;-68
2021/06/22 09:41:11;;;;;;;46.03;18.60;;;40.10;77.80;;;;;;5077443;28;20039;-66
2021/06/22 09:44:21;;;;;;;27.83;5.15;;;36.40;78.70;;;;;;5088153;28;20067;-66
2021/06/22 09:47:31;;;;;;;32.95;6.38;;;36.20;79.00;;;;;;5089746;28;20051;-67
2021/06/22 09:50:43;;;;;;;24.95;5.15;;;37.30;78.80;;;;;;5089551;28;20043;-67
2021/06/22 09:53:47;;;;;;;21.23;4.28;;;38.80;78.50;;;;;;5070277;28;20039;-66
2021/06/22 09:57:03;;;;;;;19.90;4.68;;;36.90;78.90;;;;;;5069738;28;20048;-66
2021/06/22 10:00:10;;;;;;;26.58;6.72;;;37.00;78.40;;;;;;5069772;28;20498;-66
2021/06/22 10:03:15;;;;;;;32.63;6.60;;;37.50;77.90;;;;;;5083793;28;20556;-67
2021/06/22 10:06:19;;;;;;;25.33;5.07;;;37.90;77.10;;;;;;5072992;28;20044;-68
2021/06/22 10:09:31;;;;;;;18.83;3.80;;;38.90;77.30;;;;;;5077775;28;20047;-66
2021/06/22 10:12:44;;;;;;;27.00;5.13;;;40.30;73.90;;;;;;5090505;28;20047;-67
2021/06/22 10:16:21;;;;;;;19.42;4.65;;;37.60;75.10;;;;;;5092743;28;20051;-67
2021/06/22 10:19:26;;;;;;;24.35;4.68;;;39.70;74.30;;;;;;5092948;28;20550;-67
2021/06/22 10:22:34;;;;;;;37.30;6.32;;;37.10;77.60;;;;;;5076652;28;20398;-67
2021/06/22 10:25:38;;;;;;;18.23;4.30;;;38.30;75.40;;;;;;5089172;28;20035;-67
2021/06/22 10:28:45;;;;;;;28.52;4.18;;;39.80;74.30;;;;;;5081514;28;20048;-67
2021/06/22 10:31:56;;;;;;;25.35;5.35;;;38.60;72.80;;;;;;5075358;28;20055;-66
2021/06/22 10:35:06;;;;;;;25.08;4.63;;;37.60;76.20;;;;;;5074256;28;20051;-67
2021/06/22 10:38:10;;;;;;;29.55;4.93;;;39.40;75.60;;;;;;5079176;28;20047;-66
2021/06/22 10:41:15;;;;;;;24.15;4.95;;;40.60;73.40;;;;;;5083365;28;20039;-67
2021/06/22 10:44:27;;;;;;;27.40;4.97;;;41.10;73.80;;;;;;5081697;28;20066;-67
2021/06/22 10:47:35;;;;;;;32.20;4.65;;;36.20;74.50;;;;;;5091778;28;20498;-67
2021/06/22 10:50:40;;;;;;;18.88;4.60;;;35.70;77.90;;;;;;5082777;28;20502;-67
2021/06/22 10:53:45;;;;;;;26.13;4.70;;;36.70;76.40;;;;;;5088883;28;20054;-67
2021/06/22 10:56:51;;;;;;;18.38;5.28;;;38.30;74.70;;;;;;5072216;28;20055;-66
2021/06/22 11:00:03;;;;;;;24.23;4.13;;;40.30;73.10;;;;;;5074753;28;20415;-67
2021/06/22 11:03:08;;;;;;;27.85;4.50;;;41.00;72.60;;;;;;5088450;28;20043;-67
2021/06/22 11:06:22;;;;;;;24.98;4.68;;;39.20;72.60;;;;;;5092828;28;20402;-67
2021/06/22 11:09:30;;;;;;;18.55;4.28;;;39.50;72.80;;;;;;5085005;28;20063;-66
2021/06/22 11:12:48;;;;;;;23.13;4.30;;;39.10;73.30;;;;;;5080155;28;20098;-67
2021/06/22 11:15:55;;;;;;;25.25;4.35;;;40.40;72.20;;;;;;5089014;28;20051;-66
2021/06/22 11:19:00;;;;;;;20.77;4.60;;;41.00;70.70;;;;;;5073084;28;20051;-66
2021/06/22 11:22:05;;;;;;;20.45;4.85;;;41.10;70.70;;;;;;5074309;28;20395;-66
2021/06/22 11:25:10;;;;;;;17.63;4.35;;;38.50;72.20;;;;;;5090678;28;20043;-67
2021/06/22 11:28:15;;;;;;;25.08;4.95;;;38.60;72.40;;;;;;5091936;28;20395;-67
2021/06/22 11:31:38;;;;;;;16.88;3.75;;;36.80;75.10;;;;;;5086399;28;20066;-67
2021/06/22 11:34:56;;;;;;;24.70;4.57;;;36.80;76.00;;;;;;5086677;28;20039;-66
2021/06/22 11:38:13;;;;;;;19.60;3.63;;;38.20;73.90;;;;;;5091185;28;20035;-66
2021/06/22 11:41:17;;;;;;;18.65;3.97;;;38.90;72.90;;;;;;5083761;28;20525;-67
2021/06/22 11:44:36;;;;;;;22.98;4.35;;;39.30;72.40;;;;;;5086961;28;20047;-68
2021/06/22 11:47:40;;;;;;;19.70;4.28;;;39.60;73.10;;;;;;5087385;28;20054;-67
2021/06/22 11:50:48;;;;;;;21.75;4.35;;;40.20;71.70;;;;;;5072088;28;20063;-68
2021/06/22 11:53:52;;;;;;;26.88;4.85;;;39.00;70.60;;;;;;5074585;28;20063;-67
2021/06/22 11:56:56;;;;;;;24.13;4.82;;;39.30;72.70;;;;;;5076718;28;20482;-66
2021/06/22 12:00:29;;;;;;;19.20;4.13;;;35.80;76.50;;;;;;5078457;28;20044;-67
2021/06/22 12:03:34;;;;;;;22.85;4.80;;;35.80;77.40;;;;;;5072486;28;20048;-66
2021/06/22 12:06:41;;;;;;;27.58;4.85;;;36.00;76.60;;;;;;5080469;28;20047;-67
2021/06/22 12:09:47;;;;;;;22.42;4.88;;;37.20;75.00;;;;;;5088156;28;20043;-67
2021/06/22 12:12:53;;;;;;;18.02;4.35;;;38.00;73.80;;;;;;5078712;28;20055;-68
2021/06/22 12:16:11;;;;;;;23.38;4.68;;;36.00;73.90;;;;;;5076416;28;20048;-65
2021/06/22 12:19:17;;;;;;;25.88;5.93;;;34.70;76.00;;;;;;5080539;28;20050;-66
2021/06/22 12:22:22;;;;;;;20.73;4.82;;;34.90;80.00;;;;;;5086314;28;20052;-66
2021/06/22 12:25:26;;;;;;;24.63;4.90;;;34.50;78.20;;;;;;5089928;28;20051;-66
2021/06/22 12:28:34;;;;;;;23.33;5.05;;;35.20;77.30;;;;;;5089481;28;20043;-65
2021/06/22 12:31:38;;;;;;;26.70;4.60;;;34.90;77.70;;;;;;5091242;28;20055;-67
2021/06/22 12:34:43;;;;;;;26.73;4.80;;;35.50;78.10;;;;;;5073933;28;20043;-67
2021/06/22 12:37:48;;;;;;;25.98;4.15;;;35.40;78.90;;;;;;5074375;28;20493;-66
2021/06/22 12:41:01;;;;;;;26.17;5.43;;;34.70;78.90;;;;;;5070547;28;20055;-66
2021/06/22 12:44:08;;;;;;;28.80;5.20;;;33.90;79.70;;;;;;5071319;28;20044;-66
2021/06/22 12:47:12;;;;;;;16.85;4.63;;;33.00;80.20;;;;;;5070498;28;20059;-67
2021/06/22 12:50:16;;;;;;;29.00;5.32;;;34.60;78.30;;;;;;5076292;28;20059;-66
2021/06/22 12:53:20;;;;;;;27.48;4.43;;;36.10;78.20;;;;;;5090952;28;20055;-67
2021/06/22 12:56:27;;;;;;;20.27;4.47;;;37.20;76.30;;;;;;5076749;28;20376;-66
2021/06/22 12:59:45;;;;;;;20.55;4.10;;;37.70;76.30;;;;;;5069918;28;20059;-67
2021/06/22 13:02:49;;;;;;;29.42;5.25;;;37.30;75.90;;;;;;5070182;28;20043;-67
2021/06/22 13:05:54;;;;;;;29.15;5.05;;;35.30;78.20;;;;;;5080184;28;20525;-66
2021/06/22 13:09:12;;;;;;;24.38;5.22;;;36.00;77.90;;;;;;5084875;28;20031;-67
2021/06/22 13:12:16;;;;;;;19.83;4.38;;;35.20;79.10;;;;;;5078130;28;20039;-66
2021/06/22 13:15:33;;;;;;;24.63;5.35;;;35.50;78.80;;;;;;5082901;28;20039;-66
2021/06/22 13:19:01;;;;;;;34.35;5.50;;;33.80;79.80;;;;;;5084767;28;20383;-66
2021/06/22 13:22:05;;;;;;;22.75;4.78;;;33.30;80.30;;;;;;5084022;28;20050;-66
2021/06/22 13:25:12;;;;;;;20.05;4.97;;;34.80;80.80;;;;;;5090762;28;20043;-68
2021/06/22 13:28:16;;;;;;;25.23;4.75;;;35.80;78.90;;;;;;5088676;28;20051;-68
2021/06/22 13:31:21;;;;;;;35.05;5.05;;;35.10;79.10;;;;;;5081701;28;20396;-68
2021/06/22 13:34:35;;;;;;;21.50;5.18;;;35.10;78.60;;;;;;5070970;28;20059;-68
2021/06/22 13:38:03;;;;;;;27.05;6.28;;;33.40;81.20;;;;;;5069902;28;20059;-68
2021/06/22 13:41:15;;;;;;;19.05;5.18;;;34.50;79.30;;;;;;5069123;28;20584;-68
2021/06/22 13:44:41;;;;;;;20.38;5.25;;;35.60;78.70;;;;;;5075007;28;20047;-68
2021/06/22 13:47:47;;;;;;;22.98;5.22;;;36.60;77.40;;;;;;5087291;28;20379;-67
2021/06/22 13:50:55;;;;;;;21.20;4.28;;;36.20;78.20;;;;;;5075799;28;20039;-67
2021/06/22 13:54:04;;;;;;;28.20;5.20;;;35.90;77.80;;;;;;5076011;28;20047;-68
2021/06/22 13:57:09;;;;;;;25.40;5.32;;;35.90;77.80;;;;;;5076116;28;20056;-67
2021/06/22 14:00:14;;;;;;;26.02;5.15;;;36.60;76.80;;;;;;5092428;28;20047;-68
2021/06/22 14:03:21;;;;;;;19.15;4.90;;;36.60;77.10;;;;;;5085739;28;20453;-67
2021/06/22 14:06:26;;;;;;;21.58;4.90;;;35.30;77.50;;;;;;5094868;28;20039;-67
2021/06/22 14:09:31;;;;;;;20.45;3.90;;;34.00;80.00;;;;;;5085538;28;20043;-67
2021/06/22 14:12:36;;;;;;;23.20;5.07;;;34.80;79.50;;;;;;5074811;28;20047;-69
2021/06/22 14:15:41;;;;;;;24.92;4.82;;;33.70;81.30;;;;;;5077748;28;20047;-68
2021/06/22 14:18:45;;;;;;;25.80;5.20;;;33.50;83.00;;;;;;5080705;28;20043;-67
2021/06/22 14:21:53;;;;;;;23.63;4.68;;;34.00;80.10;;;;;;5090169;28;20512;-68
2021/06/22 14:24:57;;;;;;;36.35;5.97;;;34.70;81.40;;;;;;5086649;28;20379;-66
2021/06/22 14:28:01;;;;;;;25.55;5.93;;;33.30;82.00;;;;;;5094228;28;20038;-67
2021/06/22 14:31:05;;;;;;;20.10;5.28;;;33.10;84.70;;;;;;5095894;28;20039;-68
2021/06/22 14:34:14;;;;;;;26.48;4.63;;;34.00;81.30;;;;;;5093766;28;20047;-68
2021/06/22 14:37:18;;;;;;;19.90;4.95;;;34.50;80.20;;;;;;5093361;28;20125;-67
2021/06/22 14:40:25;;;;;;;24.33;4.50;;;34.50;80.50;;;;;;5094148;28;20051;-68
2021/06/22 14:43:29;;;;;;;26.48;5.53;;;34.70;79.40;;;;;;5094553;28;20051;-67
2021/06/22 14:46:35;;;;;;;22.15;4.90;;;34.30;80.70;;;;;;5082815;28;20387;-67
2021/06/22 14:49:40;;;;;;;29.27;6.15;;;33.70;81.10;;;;;;5093197;28;20097;-67
2021/06/22 14:52:46;;;;;;;18.67;5.28;;;33.10;82.00;;;;;;5090810;28;20059;-68
2021/06/22 14:55:50;;;;;;;21.98;5.43;;;33.30;83.70;;;;;;5092109;28;20042;-67
2021/06/22 14:58:54;;;;;;;23.98;4.65;;;33.80;84.20;;;;;;5093502;28;20035;-68
2021/06/22 15:02:01;;;;;;;27.85;5.22;;;34.20;83.00;;;;;;5088794;28;20039;-67
2021/06/22 15:05:05;;;;;;;28.35;4.97;;;34.50;83.70;;;;;;5088238;28;20055;-68
2021/06/22 15:08:13;;;;;;;22.95;4.70;;;34.70;82.30;;;;;;5090382;28;20640;-68
2021/06/22 15:11:17;;;;;;;31.23;4.93;;;34.90;81.90;;;;;;5085210;28;20051;-68
2021/06/22 15:14:21;;;;;;;23.17;5.10;;;34.50;81.10;;;;;;5088404;28;20055;-67
2021/06/22 15:17:28;;;;;;;21.70;4.53;;;33.40;83.10;;;;;;5088738;28;20050;-68
2021/06/22 15:20:34;;;;;;;20.02;5.13;;;33.60;84.40;;;;;;5088120;28;20055;-68
2021/06/22 15:23:39;;;;;;;24.70;4.88;;;33.90;83.00;;;;;;5088094;28;20043;-68
2021/06/22 15:26:43;;;;;;;31.92;5.15;;;33.80;82.80;;;;;;5091756;28;20039;-67
2021/06/22 15:29:47;;;;;;;30.73;5.43;;;34.00;82.10;;;;;;5092281;28;20043;-67
2021/06/22 15:32:52;;;;;;;24.52;4.65;;;33.60;82.60;;;;;;5091462;28;20035;-68
2021/06/22 15:35:57;;;;;;;20.65;4.55;;;33.80;83.00;;;;;;5092209;28;20601;-68
2021/06/22 15:39:02;;;;;;;23.27;4.53;;;33.90;82.10;;;;;;5093342;28;20051;-66
2021/06/22 15:42:07;;;;;;;29.25;5.75;;;34.00;82.00;;;;;;5091142;28;20047;-67
2021/06/22 15:45:13;;;;;;;25.52;4.95;;;34.00;83.40;;;;;;5089637;28;20049;-68
2021/06/22 15:48:18;;;;;;;32.75;4.63;;;33.20;82.20;;;;;;5090569;28;20039;-67
2021/06/22 15:51:24;;;;;;;16.80;4.38;;;32.80;83.60;;;;;;5093061;28;20047;-66
2021/06/22 15:54:28;;;;;;;19.95;4.53;;;32.70;82.60;;;;;;5092947;28;20502;-67
2021/06/22 15:57:33;;;;;;;19.80;3.63;;;32.90;81.90;;;;;;5092612;28;20544;-67
2021/06/22 16:00:38;;;;;;;23.73;4.72;;;33.00;82.60;;;;;;5092061;28;20043;-68